sensor_id;sensor_type;location;lat;lon;timestamp;P1;durP1;ratioP1;P2;durP2;ratioP2
27412;SDS011;14871;52.702;5.230;2023-08-07T00:01:45;9.82;;;2.13;;
27412;SDS011;14871;52.702;5.230;2023-08-07T00:04:11;11.65;;;2.83;;
27412;SDS011;14871;52.702;5.230;2023-08-07T00:06:37;11.02;;;3.20;;
27412;SDS011;14871;52.702;5.230;2023-08-07T00:09:02;8.73;;;1.80;;
27412;SDS011;14871;52.702;5.230;2023-08-07T00:11:28;7.50;;;1.92;;
27412;SDS011;14871;52.702;5.230;2023-08-07T00:13:54;7.57;;;2.35;;
27412;SDS011;14871;52.702;5.230;2023-08-07T00:16:20;8.35;;;1.80;;
27412;SDS011;14871;52.702;5.230;2023-08-07T00:18:46;8.57;;;1.65;;
27412;SDS011;14871;52.702;5.230;2023-08-07T00:21:12;9.30;;;1.70;;
27412;SDS011;14871;52.702;5.230;2023-08-07T00:23:37;11.48;;;2.03;;
27412;SDS011;14871;52.702;5.230;2023-08-07T00:26:03;8.93;;;1.85;;
27412;SDS011;14871;52.702;5.230;2023-08-07T00:28:28;8.43;;;1.67;;
27412;SDS011;14871;52.702;5.230;2023-08-07T00:30:54;7.97;;;1.50;;
27412;SDS011;14871;52.702;5.230;2023-08-07T00:33:20;7.80;;;1.63;;
27412;SDS011;14871;52.702;5.230;2023-08-07T00:35:46;8.95;;;1.95;;
27412;SDS011;14871;52.702;5.230;2023-08-07T00:38:11;6.30;;;1.67;;
27412;SDS011;14871;52.702;5.230;2023-08-07T00:40:40;9.77;;;2.00;;
27412;SDS011;14871;52.702;5.230;2023-08-07T00:43:07;9.15;;;1.88;;
27412;SDS011;14871;52.702;5.230;2023-08-07T00:45:34;5.85;;;1.67;;
27412;SDS011;14871;52.702;5.230;2023-08-07T00:48:02;11.45;;;1.90;;
27412;SDS011;14871;52.702;5.230;2023-08-07T00:50:29;9.82;;;1.60;;
27412;SDS011;14871;52.702;5.230;2023-08-07T00:52:54;14.43;;;2.75;;
27412;SDS011;14871;52.702;5.230;2023-08-07T00:55:20;9.48;;;2.08;;
27412;SDS011;14871;52.702;5.230;2023-08-07T00:57:46;9.48;;;2.15;;
27412;SDS011;14871;52.702;5.230;2023-08-07T01:00:13;8.27;;;2.30;;
27412;SDS011;14871;52.702;5.230;2023-08-07T01:02:39;10.63;;;2.17;;
27412;SDS011;14871;52.702;5.230;2023-08-07T01:05:05;13.20;;;2.45;;
27412;SDS011;14871;52.702;5.230;2023-08-07T01:07:31;11.00;;;2.42;;
27412;SDS011;14871;52.702;5.230;2023-08-07T01:09:56;8.48;;;2.17;;
27412;SDS011;14871;52.702;5.230;2023-08-07T01:12:31;11.75;;;2.72;;
27412;SDS011;14871;52.702;5.230;2023-08-07T01:17:39;14.13;;;2.55;;
27412;SDS011;14871;52.702;5.230;2023-08-07T01:20:07;9.32;;;2.47;;
27412;SDS011;14871;52.702;5.230;2023-08-07T01:22:33;7.35;;;2.78;;
27412;SDS011;14871;52.702;5.230;2023-08-07T01:24:58;9.55;;;2.50;;
27412;SDS011;14871;52.702;5.230;2023-08-07T01:27:33;8.50;;;3.17;;
27412;SDS011;14871;52.702;5.230;2023-08-07T01:35:49;10.57;;;2.72;;
27412;SDS011;14871;52.702;5.230;2023-08-07T01:38:18;9.80;;;2.60;;
27412;SDS011;14871;52.702;5.230;2023-08-07T01:40:48;13.05;;;2.30;;
27412;SDS011;14871;52.702;5.230;2023-08-07T01:43:15;11.13;;;2.60;;
27412;SDS011;14871;52.702;5.230;2023-08-07T01:45:41;10.85;;;2.88;;
27412;SDS011;14871;52.702;5.230;2023-08-07T01:48:07;4.50;;;1.60;;
27412;SDS011;14871;52.702;5.230;2023-08-07T01:50:33;8.05;;;2.17;;
27412;SDS011;14871;52.702;5.230;2023-08-07T01:52:59;12.25;;;2.65;;
27412;SDS011;14871;52.702;5.230;2023-08-07T01:55:27;9.88;;;2.60;;
27412;SDS011;14871;52.702;5.230;2023-08-07T01:57:52;9.73;;;2.53;;
27412;SDS011;14871;52.702;5.230;2023-08-07T02:00:18;15.85;;;3.25;;
27412;SDS011;14871;52.702;5.230;2023-08-07T02:02:44;13.15;;;3.17;;
27412;SDS011;14871;52.702;5.230;2023-08-07T02:05:11;11.45;;;3.30;;
27412;SDS011;14871;52.702;5.230;2023-08-07T02:07:37;15.55;;;3.08;;
27412;SDS011;14871;52.702;5.230;2023-08-07T02:10:03;17.05;;;3.13;;
27412;SDS011;14871;52.702;5.230;2023-08-07T02:12:29;12.75;;;3.15;;
27412;SDS011;14871;52.702;5.230;2023-08-07T02:14:57;12.27;;;3.47;;
27412;SDS011;14871;52.702;5.230;2023-08-07T02:17:24;12.90;;;3.60;;
27412;SDS011;14871;52.702;5.230;2023-08-07T02:19:50;18.33;;;3.60;;
27412;SDS011;14871;52.702;5.230;2023-08-07T02:22:16;11.70;;;3.08;;
27412;SDS011;14871;52.702;5.230;2023-08-07T02:24:41;15.80;;;4.18;;
27412;SDS011;14871;52.702;5.230;2023-08-07T02:27:07;11.18;;;3.60;;
27412;SDS011;14871;52.702;5.230;2023-08-07T02:29:32;12.18;;;2.80;;
27412;SDS011;14871;52.702;5.230;2023-08-07T02:32:01;14.07;;;3.33;;
27412;SDS011;14871;52.702;5.230;2023-08-07T02:34:28;13.25;;;3.25;;
27412;SDS011;14871;52.702;5.230;2023-08-07T02:36:54;13.30;;;3.22;;
27412;SDS011;14871;52.702;5.230;2023-08-07T02:39:19;13.00;;;3.20;;
27412;SDS011;14871;52.702;5.230;2023-08-07T02:41:45;11.77;;;2.88;;
27412;SDS011;14871;52.702;5.230;2023-08-07T02:44:11;15.15;;;3.30;;
27412;SDS011;14871;52.702;5.230;2023-08-07T02:46:36;11.57;;;3.25;;
27412;SDS011;14871;52.702;5.230;2023-08-07T02:49:02;12.35;;;3.00;;
27412;SDS011;14871;52.702;5.230;2023-08-07T02:51:28;11.52;;;3.08;;
27412;SDS011;14871;52.702;5.230;2023-08-07T02:53:53;11.27;;;2.95;;
27412;SDS011;14871;52.702;5.230;2023-08-07T02:56:19;13.82;;;2.88;;
27412;SDS011;14871;52.702;5.230;2023-08-07T02:58:44;12.50;;;3.22;;
27412;SDS011;14871;52.702;5.230;2023-08-07T03:01:10;16.60;;;3.45;;
27412;SDS011;14871;52.702;5.230;2023-08-07T03:03:36;14.63;;;2.75;;
27412;SDS011;14871;52.702;5.230;2023-08-07T03:06:03;15.50;;;2.95;;
27412;SDS011;14871;52.702;5.230;2023-08-07T03:08:28;18.52;;;3.08;;
27412;SDS011;14871;52.702;5.230;2023-08-07T03:10:55;12.45;;;2.50;;
27412;SDS011;14871;52.702;5.230;2023-08-07T03:13:22;10.73;;;2.83;;
27412;SDS011;14871;52.702;5.230;2023-08-07T03:15:48;9.75;;;2.63;;
27412;SDS011;14871;52.702;5.230;2023-08-07T03:18:15;7.97;;;2.40;;
27412;SDS011;14871;52.702;5.230;2023-08-07T03:20:41;10.00;;;2.58;;
27412;SDS011;14871;52.702;5.230;2023-08-07T03:23:08;7.13;;;2.10;;
27412;SDS011;14871;52.702;5.230;2023-08-07T03:25:34;6.38;;;1.75;;
27412;SDS011;14871;52.702;5.230;2023-08-07T03:28:00;7.10;;;2.03;;
27412;SDS011;14871;52.702;5.230;2023-08-07T03:30:25;8.85;;;2.70;;
27412;SDS011;14871;52.702;5.230;2023-08-07T03:32:51;11.32;;;2.65;;
27412;SDS011;14871;52.702;5.230;2023-08-07T03:35:17;7.30;;;2.65;;
27412;SDS011;14871;52.702;5.230;2023-08-07T03:37:43;18.33;;;4.13;;
27412;SDS011;14871;52.702;5.230;2023-08-07T03:40:09;15.48;;;4.20;;
27412;SDS011;14871;52.702;5.230;2023-08-07T03:42:35;16.58;;;3.92;;
27412;SDS011;14871;52.702;5.230;2023-08-07T03:45:00;14.48;;;3.70;;
27412;SDS011;14871;52.702;5.230;2023-08-07T03:47:26;16.38;;;3.80;;
27412;SDS011;14871;52.702;5.230;2023-08-07T03:49:51;14.52;;;3.63;;
27412;SDS011;14871;52.702;5.230;2023-08-07T03:52:17;17.08;;;4.30;;
27412;SDS011;14871;52.702;5.230;2023-08-07T03:54:43;13.05;;;3.58;;
27412;SDS011;14871;52.702;5.230;2023-08-07T03:57:09;12.40;;;3.70;;
27412;SDS011;14871;52.702;5.230;2023-08-07T03:59:35;15.68;;;4.18;;
27412;SDS011;14871;52.702;5.230;2023-08-07T04:02:01;21.08;;;3.67;;
27412;SDS011;14871;52.702;5.230;2023-08-07T04:04:27;12.15;;;3.08;;
27412;SDS011;14871;52.702;5.230;2023-08-07T04:06:53;16.45;;;3.63;;
27412;SDS011;14871;52.702;5.230;2023-08-07T04:09:18;14.10;;;3.40;;
27412;SDS011;14871;52.702;5.230;2023-08-07T04:11:44;15.50;;;3.50;;
27412;SDS011;14871;52.702;5.230;2023-08-07T04:14:10;15.13;;;3.72;;
27412;SDS011;14871;52.702;5.230;2023-08-07T04:16:36;10.75;;;3.30;;
27412;SDS011;14871;52.702;5.230;2023-08-07T04:19:02;10.95;;;3.08;;
27412;SDS011;14871;52.702;5.230;2023-08-07T04:21:29;10.27;;;3.00;;
27412;SDS011;14871;52.702;5.230;2023-08-07T04:23:55;14.60;;;3.63;;
27412;SDS011;14871;52.702;5.230;2023-08-07T04:26:21;12.13;;;3.53;;
27412;SDS011;14871;52.702;5.230;2023-08-07T04:28:46;16.77;;;4.10;;
27412;SDS011;14871;52.702;5.230;2023-08-07T04:31:12;19.55;;;3.97;;
27412;SDS011;14871;52.702;5.230;2023-08-07T04:33:38;14.93;;;3.67;;
27412;SDS011;14871;52.702;5.230;2023-08-07T04:36:03;13.65;;;3.97;;
27412;SDS011;14871;52.702;5.230;2023-08-07T04:38:29;18.10;;;4.00;;
27412;SDS011;14871;52.702;5.230;2023-08-07T04:40:55;14.15;;;4.13;;
27412;SDS011;14871;52.702;5.230;2023-08-07T04:43:20;16.10;;;4.20;;
27412;SDS011;14871;52.702;5.230;2023-08-07T04:45:46;14.00;;;4.47;;
27412;SDS011;14871;52.702;5.230;2023-08-07T04:48:12;16.27;;;4.30;;
27412;SDS011;14871;52.702;5.230;2023-08-07T04:50:38;14.95;;;4.20;;
27412;SDS011;14871;52.702;5.230;2023-08-07T04:53:04;18.90;;;4.82;;
27412;SDS011;14871;52.702;5.230;2023-08-07T04:55:30;11.85;;;4.07;;
27412;SDS011;14871;52.702;5.230;2023-08-07T04:57:56;19.55;;;3.88;;
27412;SDS011;14871;52.702;5.230;2023-08-07T05:00:22;16.00;;;4.18;;
27412;SDS011;14871;52.702;5.230;2023-08-07T05:02:48;16.17;;;4.78;;
27412;SDS011;14871;52.702;5.230;2023-08-07T05:05:14;10.88;;;3.80;;
27412;SDS011;14871;52.702;5.230;2023-08-07T05:07:40;10.90;;;3.55;;
27412;SDS011;14871;52.702;5.230;2023-08-07T05:10:07;12.60;;;3.30;;
27412;SDS011;14871;52.702;5.230;2023-08-07T05:12:33;26.30;;;4.72;;
27412;SDS011;14871;52.702;5.230;2023-08-07T05:14:59;21.58;;;4.30;;
27412;SDS011;14871;52.702;5.230;2023-08-07T05:17:24;17.88;;;4.15;;
27412;SDS011;14871;52.702;5.230;2023-08-07T05:19:50;14.45;;;4.60;;
27412;SDS011;14871;52.702;5.230;2023-08-07T05:22:16;12.35;;;3.38;;
27412;SDS011;14871;52.702;5.230;2023-08-07T05:24:41;14.20;;;4.03;;
27412;SDS011;14871;52.702;5.230;2023-08-07T05:27:08;20.83;;;4.05;;
27412;SDS011;14871;52.702;5.230;2023-08-07T05:29:34;11.02;;;3.58;;
27412;SDS011;14871;52.702;5.230;2023-08-07T05:32:08;17.73;;;3.42;;
27412;SDS011;14871;52.702;5.230;2023-08-07T05:34:34;15.02;;;3.42;;
27412;SDS011;14871;52.702;5.230;2023-08-07T05:36:59;12.85;;;3.65;;
27412;SDS011;14871;52.702;5.230;2023-08-07T05:39:25;10.85;;;3.00;;
27412;SDS011;14871;52.702;5.230;2023-08-07T05:41:50;15.93;;;3.67;;
27412;SDS011;14871;52.702;5.230;2023-08-07T05:44:20;11.93;;;3.78;;
27412;SDS011;14871;52.702;5.230;2023-08-07T05:46:45;14.82;;;3.22;;
27412;SDS011;14871;52.702;5.230;2023-08-07T05:49:11;10.82;;;3.17;;
27412;SDS011;14871;52.702;5.230;2023-08-07T05:51:36;16.98;;;3.50;;
27412;SDS011;14871;52.702;5.230;2023-08-07T05:54:02;13.15;;;3.25;;
27412;SDS011;14871;52.702;5.230;2023-08-07T05:56:27;17.02;;;3.22;;
27412;SDS011;14871;52.702;5.230;2023-08-07T05:58:53;11.90;;;2.95;;
27412;SDS011;14871;52.702;5.230;2023-08-07T06:01:19;13.60;;;3.50;;
27412;SDS011;14871;52.702;5.230;2023-08-07T06:03:44;12.50;;;3.15;;
27412;SDS011;14871;52.702;5.230;2023-08-07T06:06:10;18.02;;;4.13;;
27412;SDS011;14871;52.702;5.230;2023-08-07T06:08:36;16.05;;;3.92;;
27412;SDS011;14871;52.702;5.230;2023-08-07T06:11:01;13.63;;;3.53;;
27412;SDS011;14871;52.702;5.230;2023-08-07T06:13:33;14.15;;;3.35;;
27412;SDS011;14871;52.702;5.230;2023-08-07T06:15:59;9.63;;;3.38;;
27412;SDS011;14871;52.702;5.230;2023-08-07T06:18:24;12.65;;;2.90;;
27412;SDS011;14871;52.702;5.230;2023-08-07T06:20:50;18.75;;;3.90;;
27412;SDS011;14871;52.702;5.230;2023-08-07T06:23:15;14.20;;;3.92;;
27412;SDS011;14871;52.702;5.230;2023-08-07T06:25:41;11.38;;;3.50;;
27412;SDS011;14871;52.702;5.230;2023-08-07T06:28:07;8.82;;;3.97;;
27412;SDS011;14871;52.702;5.230;2023-08-07T06:30:33;11.50;;;3.25;;
27412;SDS011;14871;52.702;5.230;2023-08-07T06:32:59;13.52;;;3.47;;
27412;SDS011;14871;52.702;5.230;2023-08-07T06:35:25;12.60;;;2.80;;
27412;SDS011;14871;52.702;5.230;2023-08-07T06:37:50;14.98;;;3.42;;
27412;SDS011;14871;52.702;5.230;2023-08-07T06:40:16;13.38;;;3.63;;
27412;SDS011;14871;52.702;5.230;2023-08-07T06:42:41;12.82;;;3.65;;
27412;SDS011;14871;52.702;5.230;2023-08-07T06:45:07;10.50;;;3.13;;
27412;SDS011;14871;52.702;5.230;2023-08-07T06:47:33;6.65;;;2.97;;
27412;SDS011;14871;52.702;5.230;2023-08-07T06:49:58;9.80;;;3.08;;
27412;SDS011;14871;52.702;5.230;2023-08-07T06:52:24;13.02;;;3.17;;
27412;SDS011;14871;52.702;5.230;2023-08-07T06:54:50;10.23;;;3.03;;
27412;SDS011;14871;52.702;5.230;2023-08-07T06:57:15;9.65;;;2.38;;
27412;SDS011;14871;52.702;5.230;2023-08-07T06:59:41;10.30;;;2.25;;
27412;SDS011;14871;52.702;5.230;2023-08-07T07:02:06;11.35;;;3.33;;
27412;SDS011;14871;52.702;5.230;2023-08-07T07:04:32;7.35;;;2.65;;
27412;SDS011;14871;52.702;5.230;2023-08-07T07:06:58;11.50;;;2.80;;
27412;SDS011;14871;52.702;5.230;2023-08-07T07:09:23;12.77;;;2.72;;
27412;SDS011;14871;52.702;5.230;2023-08-07T07:11:49;10.25;;;3.00;;
27412;SDS011;14871;52.702;5.230;2023-08-07T07:14:15;9.60;;;2.55;;
27412;SDS011;14871;52.702;5.230;2023-08-07T07:16:41;9.90;;;2.72;;
27412;SDS011;14871;52.702;5.230;2023-08-07T07:19:07;8.85;;;2.63;;
27412;SDS011;14871;52.702;5.230;2023-08-07T07:21:34;9.65;;;2.63;;
27412;SDS011;14871;52.702;5.230;2023-08-07T07:24:00;14.25;;;2.78;;
27412;SDS011;14871;52.702;5.230;2023-08-07T07:26:29;7.55;;;2.38;;
27412;SDS011;14871;52.702;5.230;2023-08-07T07:28:54;8.73;;;2.05;;
27412;SDS011;14871;52.702;5.230;2023-08-07T07:31:20;10.68;;;3.17;;
27412;SDS011;14871;52.702;5.230;2023-08-07T07:33:46;11.30;;;2.97;;
27412;SDS011;14871;52.702;5.230;2023-08-07T07:36:15;7.35;;;2.55;;
27412;SDS011;14871;52.702;5.230;2023-08-07T07:38:42;13.75;;;2.90;;
27412;SDS011;14871;52.702;5.230;2023-08-07T07:41:08;8.27;;;2.67;;
27412;SDS011;14871;52.702;5.230;2023-08-07T07:43:36;14.55;;;2.75;;
27412;SDS011;14871;52.702;5.230;2023-08-07T07:46:02;9.88;;;2.75;;
27412;SDS011;14871;52.702;5.230;2023-08-07T07:48:28;10.85;;;3.42;;
27412;SDS011;14871;52.702;5.230;2023-08-07T07:51:00;13.25;;;2.70;;
27412;SDS011;14871;52.702;5.230;2023-08-07T07:53:29;11.55;;;3.95;;
27412;SDS011;14871;52.702;5.230;2023-08-07T07:55:55;14.15;;;3.20;;
27412;SDS011;14871;52.702;5.230;2023-08-07T07:58:21;8.75;;;2.58;;
27412;SDS011;14871;52.702;5.230;2023-08-07T08:00:47;10.32;;;2.78;;
27412;SDS011;14871;52.702;5.230;2023-08-07T08:03:13;10.15;;;2.70;;
27412;SDS011;14871;52.702;5.230;2023-08-07T08:05:39;11.48;;;3.13;;
27412;SDS011;14871;52.702;5.230;2023-08-07T08:08:05;9.35;;;2.10;;
27412;SDS011;14871;52.702;5.230;2023-08-07T08:10:32;10.20;;;2.47;;
27412;SDS011;14871;52.702;5.230;2023-08-07T08:12:59;11.13;;;2.67;;
27412;SDS011;14871;52.702;5.230;2023-08-07T08:15:24;14.05;;;2.58;;
27412;SDS011;14871;52.702;5.230;2023-08-07T08:17:50;8.23;;;2.25;;
27412;SDS011;14871;52.702;5.230;2023-08-07T08:20:15;9.25;;;1.98;;
27412;SDS011;14871;52.702;5.230;2023-08-07T08:22:43;9.07;;;2.00;;
27412;SDS011;14871;52.702;5.230;2023-08-07T08:25:09;6.30;;;1.95;;
27412;SDS011;14871;52.702;5.230;2023-08-07T08:27:36;7.18;;;2.15;;
27412;SDS011;14871;52.702;5.230;2023-08-07T08:30:05;4.72;;;2.20;;
27412;SDS011;14871;52.702;5.230;2023-08-07T08:32:32;6.60;;;1.88;;
27412;SDS011;14871;52.702;5.230;2023-08-07T08:34:57;5.80;;;1.65;;
27412;SDS011;14871;52.702;5.230;2023-08-07T08:37:23;4.47;;;1.95;;
27412;SDS011;14871;52.702;5.230;2023-08-07T08:39:49;6.38;;;2.03;;
27412;SDS011;14871;52.702;5.230;2023-08-07T08:42:15;7.75;;;2.28;;
27412;SDS011;14871;52.702;5.230;2023-08-07T08:44:44;12.10;;;3.33;;
27412;SDS011;14871;52.702;5.230;2023-08-07T08:47:16;7.53;;;1.90;;
27412;SDS011;14871;52.702;5.230;2023-08-07T08:49:54;8.25;;;2.10;;
27412;SDS011;14871;52.702;5.230;2023-08-07T08:52:30;3.72;;;1.60;;
27412;SDS011;14871;52.702;5.230;2023-08-07T08:54:57;8.65;;;2.28;;
27412;SDS011;14871;52.702;5.230;2023-08-07T08:57:24;8.68;;;1.60;;
27412;SDS011;14871;52.702;5.230;2023-08-07T08:59:51;7.93;;;2.05;;
27412;SDS011;14871;52.702;5.230;2023-08-07T09:02:17;6.43;;;2.08;;
27412;SDS011;14871;52.702;5.230;2023-08-07T09:04:43;4.35;;;1.90;;
27412;SDS011;14871;52.702;5.230;2023-08-07T09:07:09;6.03;;;1.83;;
27412;SDS011;14871;52.702;5.230;2023-08-07T09:09:38;7.43;;;1.90;;
27412;SDS011;14871;52.702;5.230;2023-08-07T09:12:06;8.82;;;1.73;;
27412;SDS011;14871;52.702;5.230;2023-08-07T09:14:35;5.32;;;1.63;;
27412;SDS011;14871;52.702;5.230;2023-08-07T09:17:05;6.05;;;1.98;;
27412;SDS011;14871;52.702;5.230;2023-08-07T09:19:30;11.52;;;2.47;;
27412;SDS011;14871;52.702;5.230;2023-08-07T09:21:56;6.85;;;2.22;;
27412;SDS011;14871;52.702;5.230;2023-08-07T09:24:22;8.90;;;2.08;;
27412;SDS011;14871;52.702;5.230;2023-08-07T09:26:48;6.78;;;1.73;;
27412;SDS011;14871;52.702;5.230;2023-08-07T09:29:16;6.38;;;1.80;;
27412;SDS011;14871;52.702;5.230;2023-08-07T09:31:44;7.13;;;2.33;;
27412;SDS011;14871;52.702;5.230;2023-08-07T09:34:11;8.60;;;1.95;;
27412;SDS011;14871;52.702;5.230;2023-08-07T09:36:38;10.13;;;2.70;;
27412;SDS011;14871;52.702;5.230;2023-08-07T09:39:05;7.20;;;3.20;;
27412;SDS011;14871;52.702;5.230;2023-08-07T09:41:31;9.05;;;2.15;;
27412;SDS011;14871;52.702;5.230;2023-08-07T09:43:57;8.85;;;2.35;;
27412;SDS011;14871;52.702;5.230;2023-08-07T09:46:24;5.50;;;1.70;;
27412;SDS011;14871;52.702;5.230;2023-08-07T09:48:51;9.80;;;2.10;;
27412;SDS011;14871;52.702;5.230;2023-08-07T09:51:22;7.65;;;2.15;;
27412;SDS011;14871;52.702;5.230;2023-08-07T09:53:47;5.43;;;1.67;;
27412;SDS011;14871;52.702;5.230;2023-08-07T09:56:14;7.40;;;2.35;;
27412;SDS011;14871;52.702;5.230;2023-08-07T09:58:43;8.07;;;1.90;;
27412;SDS011;14871;52.702;5.230;2023-08-07T10:01:12;6.45;;;1.90;;
27412;SDS011;14871;52.702;5.230;2023-08-07T10:03:41;9.30;;;2.28;;
27412;SDS011;14871;52.702;5.230;2023-08-07T10:06:07;8.90;;;2.25;;
27412;SDS011;14871;52.702;5.230;2023-08-07T10:08:33;11.20;;;2.35;;
27412;SDS011;14871;52.702;5.230;2023-08-07T10:11:00;8.48;;;2.38;;
27412;SDS011;14871;52.702;5.230;2023-08-07T10:13:26;5.90;;;2.03;;
27412;SDS011;14871;52.702;5.230;2023-08-07T10:15:53;10.40;;;2.20;;
27412;SDS011;14871;52.702;5.230;2023-08-07T10:18:19;7.53;;;2.17;;
27412;SDS011;14871;52.702;5.230;2023-08-07T10:20:46;6.65;;;2.28;;
27412;SDS011;14871;52.702;5.230;2023-08-07T10:23:12;8.02;;;2.28;;
27412;SDS011;14871;52.702;5.230;2023-08-07T10:25:42;7.63;;;2.03;;
27412;SDS011;14871;52.702;5.230;2023-08-07T10:28:12;8.10;;;2.78;;
27412;SDS011;14871;52.702;5.230;2023-08-07T10:30:41;6.53;;;2.05;;
27412;SDS011;14871;52.702;5.230;2023-08-07T10:33:07;8.07;;;2.00;;
27412;SDS011;14871;52.702;5.230;2023-08-07T10:35:35;6.32;;;2.25;;
27412;SDS011;14871;52.702;5.230;2023-08-07T10:38:10;4.93;;;1.70;;
27412;SDS011;14871;52.702;5.230;2023-08-07T10:43:23;3.88;;;1.58;;
27412;SDS011;14871;52.702;5.230;2023-08-07T10:45:50;8.15;;;1.63;;
27412;SDS011;14871;52.702;5.230;2023-08-07T10:48:18;6.68;;;1.65;;
27412;SDS011;14871;52.702;5.230;2023-08-07T10:51:07;7.28;;;1.90;;
27412;SDS011;14871;52.702;5.230;2023-08-07T10:53:36;5.55;;;1.80;;
27412;SDS011;14871;52.702;5.230;2023-08-07T10:56:08;6.68;;;1.85;;
27412;SDS011;14871;52.702;5.230;2023-08-07T10:58:35;5.72;;;1.85;;
27412;SDS011;14871;52.702;5.230;2023-08-07T11:03:44;3.63;;;1.52;;
27412;SDS011;14871;52.702;5.230;2023-08-07T11:06:10;5.03;;;1.92;;
27412;SDS011;14871;52.702;5.230;2023-08-07T11:08:36;4.47;;;1.92;;
27412;SDS011;14871;52.702;5.230;2023-08-07T11:11:05;4.25;;;1.80;;
27412;SDS011;14871;52.702;5.230;2023-08-07T11:13:32;6.72;;;2.13;;
27412;SDS011;14871;52.702;5.230;2023-08-07T11:15:59;7.03;;;1.58;;
27412;SDS011;14871;52.702;5.230;2023-08-07T11:18:26;8.57;;;3.10;;
27412;SDS011;14871;52.702;5.230;2023-08-07T11:20:53;5.80;;;1.80;;
27412;SDS011;14871;52.702;5.230;2023-08-07T11:23:24;4.28;;;1.40;;
27412;SDS011;14871;52.702;5.230;2023-08-07T11:25:53;5.82;;;1.73;;
27412;SDS011;14871;52.702;5.230;2023-08-07T11:28:20;4.95;;;1.67;;
27412;SDS011;14871;52.702;5.230;2023-08-07T11:30:52;4.28;;;1.50;;
27412;SDS011;14871;52.702;5.230;2023-08-07T11:33:20;7.78;;;2.28;;
27412;SDS011;14871;52.702;5.230;2023-08-07T11:35:47;7.63;;;2.50;;
27412;SDS011;14871;52.702;5.230;2023-08-07T11:38:15;9.00;;;2.08;;
27412;SDS011;14871;52.702;5.230;2023-08-07T11:41:05;11.45;;;2.63;;
27412;SDS011;14871;52.702;5.230;2023-08-07T11:43:33;8.75;;;2.40;;
27412;SDS011;14871;52.702;5.230;2023-08-07T11:46:06;12.82;;;2.60;;
27412;SDS011;14871;52.702;5.230;2023-08-07T11:48:34;4.63;;;1.85;;
27412;SDS011;14871;52.702;5.230;2023-08-07T11:51:02;7.88;;;2.92;;
27412;SDS011;14871;52.702;5.230;2023-08-07T11:53:31;8.68;;;2.45;;
27412;SDS011;14871;52.702;5.230;2023-08-07T11:55:58;5.57;;;1.77;;
27412;SDS011;14871;52.702;5.230;2023-08-07T11:58:25;10.57;;;2.55;;
27412;SDS011;14871;52.702;5.230;2023-08-07T12:00:53;5.57;;;2.00;;
27412;SDS011;14871;52.702;5.230;2023-08-07T12:03:26;8.23;;;1.75;;
27412;SDS011;14871;52.702;5.230;2023-08-07T12:05:57;9.05;;;2.20;;
27412;SDS011;14871;52.702;5.230;2023-08-07T12:08:24;10.50;;;1.98;;
27412;SDS011;14871;52.702;5.230;2023-08-07T12:10:55;7.70;;;2.00;;
27412;SDS011;14871;52.702;5.230;2023-08-07T12:13:24;10.93;;;2.05;;
27412;SDS011;14871;52.702;5.230;2023-08-07T12:15:53;5.78;;;1.90;;
27412;SDS011;14871;52.702;5.230;2023-08-07T12:18:20;10.38;;;2.05;;
27412;SDS011;14871;52.702;5.230;2023-08-07T12:20:47;6.88;;;2.10;;
27412;SDS011;14871;52.702;5.230;2023-08-07T12:23:24;6.38;;;2.15;;
27412;SDS011;14871;52.702;5.230;2023-08-07T12:25:50;7.20;;;1.90;;
27412;SDS011;14871;52.702;5.230;2023-08-07T12:28:17;9.18;;;2.15;;
27412;SDS011;14871;52.702;5.230;2023-08-07T12:30:44;12.98;;;2.00;;
27412;SDS011;14871;52.702;5.230;2023-08-07T12:33:11;6.63;;;1.50;;
27412;SDS011;14871;52.702;5.230;2023-08-07T12:35:37;8.63;;;1.90;;
27412;SDS011;14871;52.702;5.230;2023-08-07T12:38:03;6.05;;;2.00;;
27412;SDS011;14871;52.702;5.230;2023-08-07T12:40:29;7.40;;;2.70;;
27412;SDS011;14871;52.702;5.230;2023-08-07T12:42:58;6.07;;;1.80;;
27412;SDS011;14871;52.702;5.230;2023-08-07T12:45:24;5.60;;;1.83;;
27412;SDS011;14871;52.702;5.230;2023-08-07T12:47:49;3.80;;;1.52;;
27412;SDS011;14871;52.702;5.230;2023-08-07T12:50:15;5.95;;;1.83;;
27412;SDS011;14871;52.702;5.230;2023-08-07T12:52:41;10.32;;;2.05;;
27412;SDS011;14871;52.702;5.230;2023-08-07T12:55:06;4.60;;;1.75;;
27412;SDS011;14871;52.702;5.230;2023-08-07T12:57:33;3.28;;;1.75;;
27412;SDS011;14871;52.702;5.230;2023-08-07T12:59:58;3.47;;;1.50;;
27412;SDS011;14871;52.702;5.230;2023-08-07T13:02:24;7.45;;;1.75;;
27412;SDS011;14871;52.702;5.230;2023-08-07T13:04:49;8.18;;;2.20;;
27412;SDS011;14871;52.702;5.230;2023-08-07T13:07:16;4.15;;;1.48;;
27412;SDS011;14871;52.702;5.230;2023-08-07T13:09:42;4.28;;;1.67;;
27412;SDS011;14871;52.702;5.230;2023-08-07T13:12:08;5.78;;;1.88;;
27412;SDS011;14871;52.702;5.230;2023-08-07T13:14:33;5.05;;;1.35;;
27412;SDS011;14871;52.702;5.230;2023-08-07T13:16:59;5.35;;;1.60;;
27412;SDS011;14871;52.702;5.230;2023-08-07T13:19:25;4.90;;;1.73;;
27412;SDS011;14871;52.702;5.230;2023-08-07T13:21:50;9.38;;;2.00;;
27412;SDS011;14871;52.702;5.230;2023-08-07T13:24:16;4.05;;;1.70;;
27412;SDS011;14871;52.702;5.230;2023-08-07T13:26:41;4.03;;;1.35;;
27412;SDS011;14871;52.702;5.230;2023-08-07T13:29:10;6.78;;;1.90;;
27412;SDS011;14871;52.702;5.230;2023-08-07T13:31:36;7.63;;;2.15;;
27412;SDS011;14871;52.702;5.230;2023-08-07T13:34:02;6.35;;;2.20;;
27412;SDS011;14871;52.702;5.230;2023-08-07T13:36:33;5.30;;;1.48;;
27412;SDS011;14871;52.702;5.230;2023-08-07T13:39:02;7.63;;;2.30;;
27412;SDS011;14871;52.702;5.230;2023-08-07T13:41:28;4.82;;;1.70;;
27412;SDS011;14871;52.702;5.230;2023-08-07T13:43:54;4.93;;;1.38;;
27412;SDS011;14871;52.702;5.230;2023-08-07T13:46:20;3.97;;;1.50;;
27412;SDS011;14871;52.702;5.230;2023-08-07T13:48:45;3.63;;;1.55;;
27412;SDS011;14871;52.702;5.230;2023-08-07T13:51:11;3.30;;;1.42;;
27412;SDS011;14871;52.702;5.230;2023-08-07T13:53:36;5.38;;;1.77;;
27412;SDS011;14871;52.702;5.230;2023-08-07T13:56:02;6.18;;;1.60;;
27412;SDS011;14871;52.702;5.230;2023-08-07T13:58:28;2.35;;;1.30;;
27412;SDS011;14871;52.702;5.230;2023-08-07T14:00:55;4.25;;;1.25;;
27412;SDS011;14871;52.702;5.230;2023-08-07T14:03:21;3.90;;;1.30;;
27412;SDS011;14871;52.702;5.230;2023-08-07T14:05:46;3.03;;;1.50;;
27412;SDS011;14871;52.702;5.230;2023-08-07T14:08:12;6.03;;;1.65;;
27412;SDS011;14871;52.702;5.230;2023-08-07T14:10:38;3.92;;;1.25;;
27412;SDS011;14871;52.702;5.230;2023-08-07T14:13:05;4.32;;;1.73;;
27412;SDS011;14871;52.702;5.230;2023-08-07T14:15:31;3.65;;;1.42;;
27412;SDS011;14871;52.702;5.230;2023-08-07T14:17:57;5.88;;;1.58;;
27412;SDS011;14871;52.702;5.230;2023-08-07T14:20:23;7.30;;;2.08;;
27412;SDS011;14871;52.702;5.230;2023-08-07T14:22:49;7.65;;;1.60;;
27412;SDS011;14871;52.702;5.230;2023-08-07T14:25:15;6.40;;;1.60;;
27412;SDS011;14871;52.702;5.230;2023-08-07T14:27:41;4.65;;;1.48;;
27412;SDS011;14871;52.702;5.230;2023-08-07T14:30:07;5.43;;;1.30;;
27412;SDS011;14871;52.702;5.230;2023-08-07T14:32:33;3.90;;;1.33;;
27412;SDS011;14871;52.702;5.230;2023-08-07T14:34:58;2.58;;;1.33;;
27412;SDS011;14871;52.702;5.230;2023-08-07T14:37:24;4.45;;;1.20;;
27412;SDS011;14871;52.702;5.230;2023-08-07T14:39:50;6.50;;;1.60;;
27412;SDS011;14871;52.702;5.230;2023-08-07T14:42:15;8.35;;;1.90;;
27412;SDS011;14871;52.702;5.230;2023-08-07T14:44:41;3.35;;;1.23;;
27412;SDS011;14871;52.702;5.230;2023-08-07T14:47:06;6.55;;;1.30;;
27412;SDS011;14871;52.702;5.230;2023-08-07T14:49:32;4.40;;;1.33;;
27412;SDS011;14871;52.702;5.230;2023-08-07T14:51:58;4.28;;;1.63;;